sensor_id;sensor_type;location;lat;lon;timestamp;temperature;humidity
43647;DHT22;56152;49.996;18.980;2024-02-04T00:00:06;6.70;97.30
43647;DHT22;56152;49.996;18.980;2024-02-04T00:05:09;6.70;97.40
43647;DHT22;56152;49.996;18.980;2024-02-04T00:10:12;6.70;97.40
43647;DHT22;56152;49.996;18.980;2024-02-04T00:15:17;6.60;97.40
43647;DHT22;56152;49.996;18.980;2024-02-04T00:20:22;6.60;97.40
43647;DHT22;56152;49.996;18.980;2024-02-04T00:25:28;6.60;97.40
43647;DHT22;56152;49.996;18.980;2024-02-04T00:30:34;6.60;97.40
43647;DHT22;56152;49.996;18.980;2024-02-04T00:35:41;6.60;97.40
43647;DHT22;56152;49.996;18.980;2024-02-04T00:40:43;6.60;97.40
43647;DHT22;56152;49.996;18.980;2024-02-04T00:46:06;6.70;97.40
43647;DHT22;56152;49.996;18.980;2024-02-04T00:51:12;6.70;97.40
43647;DHT22;56152;49.996;18.980;2024-02-04T00:56:17;6.70;97.40
43647;DHT22;56152;49.996;18.980;2024-02-04T01:01:19;6.70;97.30
43647;DHT22;56152;49.996;18.980;2024-02-04T01:06:23;6.80;97.30
43647;DHT22;56152;49.996;18.980;2024-02-04T01:11:25;6.90;97.20
43647;DHT22;56152;49.996;18.980;2024-02-04T01:16:30;6.90;97.10
43647;DHT22;56152;49.996;18.980;2024-02-04T01:21:34;7.00;97.00
43647;DHT22;56152;49.996;18.980;2024-02-04T01:26:38;7.10;97.00
43647;DHT22;56152;49.996;18.980;2024-02-04T01:31:42;7.10;96.90
43647;DHT22;56152;49.996;18.980;2024-02-04T01:36:45;7.10;96.80
43647;DHT22;56152;49.996;18.980;2024-02-04T01:41:47;7.10;96.80
43647;DHT22;56152;49.996;18.980;2024-02-04T01:46:49;7.10;96.90
43647;DHT22;56152;49.996;18.980;2024-02-04T01:51:53;7.10;96.90
43647;DHT22;56152;49.996;18.980;2024-02-04T01:56:58;7.10;96.90
43647;DHT22;56152;49.996;18.980;2024-02-04T02:02:03;7.10;96.90
43647;DHT22;56152;49.996;18.980;2024-02-04T02:07:07;7.10;96.80
43647;DHT22;56152;49.996;18.980;2024-02-04T02:12:18;7.00;96.90
43647;DHT22;56152;49.996;18.980;2024-02-04T02:17:27;7.00;97.00
43647;DHT22;56152;49.996;18.980;2024-02-04T02:22:42;6.90;97.00
43647;DHT22;56152;49.996;18.980;2024-02-04T02:27:50;6.90;97.10
43647;DHT22;56152;49.996;18.980;2024-02-04T02:32:52;6.80;97.10
43647;DHT22;56152;49.996;18.980;2024-02-04T02:37:59;6.80;97.20
43647;DHT22;56152;49.996;18.980;2024-02-04T02:43:05;6.80;97.30
43647;DHT22;56152;49.996;18.980;2024-02-04T02:48:08;6.80;97.40
43647;DHT22;56152;49.996;18.980;2024-02-04T02:53:12;6.80;97.40
43647;DHT22;56152;49.996;18.980;2024-02-04T02:58:15;6.70;97.40
43647;DHT22;56152;49.996;18.980;2024-02-04T03:03:17;6.70;97.50
43647;DHT22;56152;49.996;18.980;2024-02-04T03:08:22;6.70;97.50
43647;DHT22;56152;49.996;18.980;2024-02-04T03:13:27;6.70;97.60
43647;DHT22;56152;49.996;18.980;2024-02-04T03:18:30;6.60;97.70
43647;DHT22;56152;49.996;18.980;2024-02-04T03:23:32;6.60;97.80
43647;DHT22;56152;49.996;18.980;2024-02-04T03:28:36;6.50;97.80
43647;DHT22;56152;49.996;18.980;2024-02-04T03:33:39;6.40;97.90
43647;DHT22;56152;49.996;18.980;2024-02-04T03:38:46;6.30;98.00
43647;DHT22;56152;49.996;18.980;2024-02-04T03:43:51;6.30;98.10
43647;DHT22;56152;49.996;18.980;2024-02-04T03:48:55;6.30;98.20
43647;DHT22;56152;49.996;18.980;2024-02-04T03:53:58;6.30;98.20
43647;DHT22;56152;49.996;18.980;2024-02-04T03:59:05;6.20;98.30
43647;DHT22;56152;49.996;18.980;2024-02-04T04:04:17;6.20;98.30
43647;DHT22;56152;49.996;18.980;2024-02-04T04:09:20;6.20;98.40
43647;DHT22;56152;49.996;18.980;2024-02-04T04:14:27;6.20;98.40
43647;DHT22;56152;49.996;18.980;2024-02-04T04:19:29;6.20;98.40
43647;DHT22;56152;49.996;18.980;2024-02-04T04:24:37;6.20;98.40
43647;DHT22;56152;49.996;18.980;2024-02-04T04:29:40;6.20;98.40
43647;DHT22;56152;49.996;18.980;2024-02-04T04:34:42;6.20;98.40
43647;DHT22;56152;49.996;18.980;2024-02-04T04:39:44;6.20;98.50
43647;DHT22;56152;49.996;18.980;2024-02-04T04:44:52;6.20;98.50
43647;DHT22;56152;49.996;18.980;2024-02-04T04:49:54;6.20;98.50
43647;DHT22;56152;49.996;18.980;2024-02-04T04:54:56;6.20;98.60
43647;DHT22;56152;49.996;18.980;2024-02-04T05:00:09;6.20;98.60
43647;DHT22;56152;49.996;18.980;2024-02-04T05:05:14;6.20;98.70
43647;DHT22;56152;49.996;18.980;2024-02-04T05:10:18;6.20;98.70
43647;DHT22;56152;49.996;18.980;2024-02-04T05:15:27;6.20;98.70
43647;DHT22;56152;49.996;18.980;2024-02-04T05:20:30;6.20;98.70
43647;DHT22;56152;49.996;18.980;2024-02-04T05:25:33;6.20;98.80
43647;DHT22;56152;49.996;18.980;2024-02-04T05:30:36;6.20;98.90
43647;DHT22;56152;49.996;18.980;2024-02-04T05:35:49;6.20;98.90
43647;DHT22;56152;49.996;18.980;2024-02-04T05:40:51;6.20;99.00
43647;DHT22;56152;49.996;18.980;2024-02-04T05:46:05;6.20;99.00
43647;DHT22;56152;49.996;18.980;2024-02-04T05:51:07;6.20;98.90
43647;DHT22;56152;49.996;18.980;2024-02-04T05:56:14;6.20;98.90
43647;DHT22;56152;49.996;18.980;2024-02-04T06:01:18;6.10;98.90
43647;DHT22;56152;49.996;18.980;2024-02-04T06:06:20;6.00;99.00
43647;DHT22;56152;49.996;18.980;2024-02-04T06:11:23;5.90;99.00
43647;DHT22;56152;49.996;18.980;2024-02-04T06:16:35;5.90;99.00
43647;DHT22;56152;49.996;18.980;2024-02-04T06:21:42;5.80;99.10
43647;DHT22;56152;49.996;18.980;2024-02-04T06:26:45;5.80;99.00
43647;DHT22;56152;49.996;18.980;2024-02-04T06:31:50;5.70;99.00
43647;DHT22;56152;49.996;18.980;2024-02-04T06:36:52;5.70;98.90
43647;DHT22;56152;49.996;18.980;2024-02-04T06:42:01;5.60;98.90
43647;DHT22;56152;49.996;18.980;2024-02-04T06:47:05;5.60;98.80
43647;DHT22;56152;49.996;18.980;2024-02-04T06:52:07;5.60;98.70
43647;DHT22;56152;49.996;18.980;2024-02-04T06:57:12;5.60;98.70
43647;DHT22;56152;49.996;18.980;2024-02-04T07:02:17;5.60;98.60
43647;DHT22;56152;49.996;18.980;2024-02-04T07:07:20;5.70;98.50
43647;DHT22;56152;49.996;18.980;2024-02-04T07:12:22;5.70;98.40
43647;DHT22;56152;49.996;18.980;2024-02-04T07:17:32;5.70;98.30
43647;DHT22;56152;49.996;18.980;2024-02-04T07:22:36;5.70;98.20
43647;DHT22;56152;49.996;18.980;2024-02-04T07:27:39;5.70;98.20
43647;DHT22;56152;49.996;18.980;2024-02-04T07:32:42;5.70;98.10
43647;DHT22;56152;49.996;18.980;2024-02-04T07:37:44;5.70;98.10
43647;DHT22;56152;49.996;18.980;2024-02-04T07:42:46;5.70;98.00
43647;DHT22;56152;49.996;18.980;2024-02-04T07:47:52;5.70;98.00
43647;DHT22;56152;49.996;18.980;2024-02-04T07:53:01;5.60;97.90
43647;DHT22;56152;49.996;18.980;2024-02-04T07:58:06;5.60;97.90
43647;DHT22;56152;49.996;18.980;2024-02-04T08:03:12;5.50;98.00
43647;DHT22;56152;49.996;18.980;2024-02-04T08:08:14;5.50;98.00
43647;DHT22;56152;49.996;18.980;2024-02-04T08:13:16;5.40;98.00
43647;DHT22;56152;49.996;18.980;2024-02-04T08:18:20;5.40;98.00
43647;DHT22;56152;49.996;18.980;2024-02-04T08:23:22;5.40;98.00
43647;DHT22;56152;49.996;18.980;2024-02-04T08:28:25;5.40;98.10
43647;DHT22;56152;49.996;18.980;2024-02-04T08:33:36;5.30;98.50
43647;DHT22;56152;49.996;18.980;2024-02-04T08:38:38;5.40;98.30
43647;DHT22;56152;49.996;18.980;2024-02-04T08:43:39;5.60;98.40
43647;DHT22;56152;49.996;18.980;2024-02-04T08:48:44;5.80;98.40
43647;DHT22;56152;49.996;18.980;2024-02-04T08:53:46;6.10;98.20
43647;DHT22;56152;49.996;18.980;2024-02-04T08:58:48;6.20;98.00
43647;DHT22;56152;49.996;18.980;2024-02-04T09:03:52;6.40;97.90
43647;DHT22;56152;49.996;18.980;2024-02-04T09:09:00;6.80;97.90
43647;DHT22;56152;49.996;18.980;2024-02-04T09:14:05;7.00;97.50
43647;DHT22;56152;49.996;18.980;2024-02-04T09:19:10;6.90;97.40
43647;DHT22;56152;49.996;18.980;2024-02-04T09:24:12;6.70;97.50
43647;DHT22;56152;49.996;18.980;2024-02-04T09:29:14;6.60;97.80
43647;DHT22;56152;49.996;18.980;2024-02-04T09:34:37;6.50;98.00
43647;DHT22;56152;49.996;18.980;2024-02-04T09:39:42;6.60;98.80
43647;DHT22;56152;49.996;18.980;2024-02-04T09:44:45;7.30;98.40
43647;DHT22;56152;49.996;18.980;2024-02-04T09:49:48;7.30;98.20
43647;DHT22;56152;49.996;18.980;2024-02-04T09:54:56;7.10;98.20
43647;DHT22;56152;49.996;18.980;2024-02-04T10:00:02;7.00;98.30
43647;DHT22;56152;49.996;18.980;2024-02-04T10:05:10;6.80;98.50
43647;DHT22;56152;49.996;18.980;2024-02-04T10:10:12;6.70;98.80
43647;DHT22;56152;49.996;18.980;2024-02-04T10:15:20;6.80;99.00
43647;DHT22;56152;49.996;18.980;2024-02-04T10:20:27;7.00;98.90
43647;DHT22;56152;49.996;18.980;2024-02-04T10:25:34;7.20;98.80
43647;DHT22;56152;49.996;18.980;2024-02-04T10:30:38;7.40;98.80
43647;DHT22;56152;49.996;18.980;2024-02-04T10:35:44;7.50;98.60
43647;DHT22;56152;49.996;18.980;2024-02-04T10:40:46;7.60;98.60
43647;DHT22;56152;49.996;18.980;2024-02-04T10:45:53;7.60;98.60
43647;DHT22;56152;49.996;18.980;2024-02-04T10:50:59;7.70;98.60
43647;DHT22;56152;49.996;18.980;2024-02-04T10:56:06;7.80;98.70
43647;DHT22;56152;49.996;18.980;2024-02-04T11:01:08;7.70;98.60
43647;DHT22;56152;49.996;18.980;2024-02-04T11:06:19;7.70;98.70
43647;DHT22;56152;49.996;18.980;2024-02-04T11:11:26;7.70;98.70
43647;DHT22;56152;49.996;18.980;2024-02-04T11:16:40;7.60;98.80
43647;DHT22;56152;49.996;18.980;2024-02-04T11:27:47;7.50;99.00
43647;DHT22;56152;49.996;18.980;2024-02-04T11:32:49;7.50;98.90
43647;DHT22;56152;49.996;18.980;2024-02-04T11:37:53;7.40;98.90
43647;DHT22;56152;49.996;18.980;2024-02-04T11:43:13;7.40;99.00
43647;DHT22;56152;49.996;18.980;2024-02-04T11:48:29;7.40;99.10
43647;DHT22;56152;49.996;18.980;2024-02-04T11:53:32;7.50;99.10
43647;DHT22;56152;49.996;18.980;2024-02-04T11:58:36;7.50;99.20
43647;DHT22;56152;49.996;18.980;2024-02-04T12:03:48;7.50;99.20
43647;DHT22;56152;49.996;18.980;2024-02-04T12:08:53;7.50;99.20
43647;DHT22;56152;49.996;18.980;2024-02-04T12:14:00;7.60;99.20
43647;DHT22;56152;49.996;18.980;2024-02-04T12:19:03;7.60;99.20
43647;DHT22;56152;49.996;18.980;2024-02-04T12:24:31;7.60;99.20
43647;DHT22;56152;49.996;18.980;2024-02-04T12:29:42;7.50;99.30
43647;DHT22;56152;49.996;18.980;2024-02-04T12:34:47;7.50;99.30
43647;DHT22;56152;49.996;18.980;2024-02-04T12:39:49;7.40;99.50
43647;DHT22;56152;49.996;18.980;2024-02-04T12:44:56;7.40;99.60
43647;DHT22;56152;49.996;18.980;2024-02-04T12:49:59;7.40;99.60
43647;DHT22;56152;49.996;18.980;2024-02-04T12:55:03;7.40;99.70
43647;DHT22;56152;49.996;18.980;2024-02-04T13:00:09;7.40;99.70
43647;DHT22;56152;49.996;18.980;2024-02-04T13:05:24;7.50;99.70
43647;DHT22;56152;49.996;18.980;2024-02-04T13:10:27;7.50;99.70
43647;DHT22;56152;49.996;18.980;2024-02-04T13:15:37;7.50;99.70
43647;DHT22;56152;49.996;18.980;2024-02-04T13:20:52;7.50;99.60
43647;DHT22;56152;49.996;18.980;2024-02-04T13:25:54;7.50;99.50
43647;DHT22;56152;49.996;18.980;2024-02-04T13:30:58;7.50;99.60
43647;DHT22;56152;49.996;18.980;2024-02-04T13:36:00;7.40;99.70
43647;DHT22;56152;49.996;18.980;2024-02-04T13:41:03;7.40;99.70
43647;DHT22;56152;49.996;18.980;2024-02-04T13:46:16;7.40;99.80
43647;DHT22;56152;49.996;18.980;2024-02-04T13:51:19;7.30;99.80
43647;DHT22;56152;49.996;18.980;2024-02-04T13:56:24;7.20;99.90
43647;DHT22;56152;49.996;18.980;2024-02-04T14:01:28;7.20;99.90
43647;DHT22;56152;49.996;18.980;2024-02-04T14:06:32;7.10;99.90
43647;DHT22;56152;49.996;18.980;2024-02-04T14:11:34;7.10;99.90
43647;DHT22;56152;49.996;18.980;2024-02-04T14:16:37;7.00;99.90
43647;DHT22;56152;49.996;18.980;2024-02-04T14:21:40;7.00;99.90
43647;DHT22;56152;49.996;18.980;2024-02-04T14:26:43;7.00;99.90
43647;DHT22;56152;49.996;18.980;2024-02-04T14:31:48;6.90;99.90
43647;DHT22;56152;49.996;18.980;2024-02-04T14:36:50;6.90;99.90
43647;DHT22;56152;49.996;18.980;2024-02-04T14:42:04;6.90;99.90
43647;DHT22;56152;49.996;18.980;2024-02-04T14:47:11;6.90;99.90
43647;DHT22;56152;49.996;18.980;2024-02-04T14:52:13;6.80;99.90
43647;DHT22;56152;49.996;18.980;2024-02-04T14:57:15;6.80;99.90
43647;DHT22;56152;49.996;18.980;2024-02-04T15:02:18;6.80;99.90
43647;DHT22;56152;49.996;18.980;2024-02-04T15:07:20;6.80;99.90
43647;DHT22;56152;49.996;18.980;2024-02-04T15:12:24;6.80;99.90
43647;DHT22;56152;49.996;18.980;2024-02-04T15:17:30;6.80;99.90
43647;DHT22;56152;49.996;18.980;2024-02-04T15:22:32;6.80;99.90
43647;DHT22;56152;49.996;18.980;2024-02-04T15:27:35;6.80;99.90
43647;DHT22;56152;49.996;18.980;2024-02-04T15:32:40;6.80;99.90
43647;DHT22;56152;49.996;18.980;2024-02-04T15:37:42;6.70;99.90
43647;DHT22;56152;49.996;18.980;2024-02-04T15:42:46;6.80;99.90
43647;DHT22;56152;49.996;18.980;2024-02-04T15:47:51;6.80;99.90
43647;DHT22;56152;49.996;18.980;2024-02-04T15:52:54;6.70;99.90
43647;DHT22;56152;49.996;18.980;2024-02-04T15:57:59;6.70;99.90
43647;DHT22;56152;49.996;18.980;2024-02-04T16:03:04;6.70;99.90
43647;DHT22;56152;49.996;18.980;2024-02-04T16:08:07;6.70;99.90
43647;DHT22;56152;49.996;18.980;2024-02-04T16:13:12;6.70;99.90
43647;DHT22;56152;49.996;18.980;2024-02-04T16:18:16;6.70;99.90
43647;DHT22;56152;49.996;18.980;2024-02-04T16:23:18;6.70;99.90
43647;DHT22;56152;49.996;18.980;2024-02-04T16:28:20;6.70;99.90
43647;DHT22;56152;49.996;18.980;2024-02-04T16:33:23;6.70;99.90
43647;DHT22;56152;49.996;18.980;2024-02-04T16:38:26;6.70;99.90
43647;DHT22;56152;49.996;18.980;2024-02-04T16:43:28;6.70;99.90
43647;DHT22;56152;49.996;18.980;2024-02-04T16:48:42;6.80;99.90
43647;DHT22;56152;49.996;18.980;2024-02-04T16:53:45;6.80;99.90
43647;DHT22;56152;49.996;18.980;2024-02-04T16:58:48;6.90;99.90
43647;DHT22;56152;49.996;18.980;2024-02-04T17:03:52;6.90;99.90
43647;DHT22;56152;49.996;18.980;2024-02-04T17:08:55;7.00;99.90
43647;DHT22;56152;49.996;18.980;2024-02-04T17:13:58;7.00;99.90
43647;DHT22;56152;49.996;18.980;2024-02-04T17:19:05;7.00;99.90
43647;DHT22;56152;49.996;18.980;2024-02-04T17:24:15;7.00;99.90
43647;DHT22;56152;49.996;18.980;2024-02-04T17:29:22;7.10;99.90
43647;DHT22;56152;49.996;18.980;2024-02-04T17:34:27;7.10;99.90
43647;DHT22;56152;49.996;18.980;2024-02-04T17:39:31;7.20;99.90
43647;DHT22;56152;49.996;18.980;2024-02-04T17:44:33;7.20;99.90
43647;DHT22;56152;49.996;18.980;2024-02-04T17:49:45;7.20;99.90
43647;DHT22;56152;49.996;18.980;2024-02-04T17:54:48;7.20;99.90
43647;DHT22;56152;49.996;18.980;2024-02-04T17:59:58;7.20;99.90
43647;DHT22;56152;49.996;18.980;2024-02-04T18:05:02;7.20;99.90
43647;DHT22;56152;49.996;18.980;2024-02-04T18:10:05;7.10;99.90
43647;DHT22;56152;49.996;18.980;2024-02-04T18:15:09;7.10;99.90
43647;DHT22;56152;49.996;18.980;2024-02-04T18:20:15;7.00;99.90
43647;DHT22;56152;49.996;18.980;2024-02-04T18:25:19;7.00;99.90
43647;DHT22;56152;49.996;18.980;2024-02-04T18:30:22;7.00;99.90
43647;DHT22;56152;49.996;18.980;2024-02-04T18:35:26;6.90;99.90
43647;DHT22;56152;49.996;18.980;2024-02-04T18:40:28;6.90;99.90
43647;DHT22;56152;49.996;18.980;2024-02-04T18:45:36;6.80;99.90
43647;DHT22;56152;49.996;18.980;2024-02-04T18:50:46;6.90;99.90
43647;DHT22;56152;49.996;18.980;2024-02-04T18:55:52;6.90;99.90
43647;DHT22;56152;49.996;18.980;2024-02-04T19:00:57;6.80;99.80
43647;DHT22;56152;49.996;18.980;2024-02-04T19:06:02;6.80;99.80
43647;DHT22;56152;49.996;18.980;2024-02-04T19:11:15;6.70;99.80
43647;DHT22;56152;49.996;18.980;2024-02-04T19:16:28;6.70;99.80
43647;DHT22;56152;49.996;18.980;2024-02-04T19:21:44;6.70;99.90
43647;DHT22;56152;49.996;18.980;2024-02-04T19:26:46;6.70;99.90
43647;DHT22;56152;49.996;18.980;2024-02-04T19:32:31;6.70;99.90
43647;DHT22;56152;49.996;18.980;2024-02-04T19:38:03;6.70;99.90
43647;DHT22;56152;49.996;18.980;2024-02-04T19:43:16;6.70;99.90
43647;DHT22;56152;49.996;18.980;2024-02-04T19:48:19;6.70;99.90
43647;DHT22;56152;49.996;18.980;2024-02-04T19:53:22;6.70;99.90
43647;DHT22;56152;49.996;18.980;2024-02-04T20:09:30;6.70;99.90
43647;DHT22;56152;49.996;18.980;2024-02-04T20:14:33;6.80;99.80
43647;DHT22;56152;49.996;18.980;2024-02-04T20:19:53;6.90;99.70
43647;DHT22;56152;49.996;18.980;2024-02-04T20:25:02;6.90;99.60
43647;DHT22;56152;49.996;18.980;2024-02-04T20:30:06;6.90;99.50
43647;DHT22;56152;49.996;18.980;2024-02-04T20:35:09;6.90;99.50
43647;DHT22;56152;49.996;18.980;2024-02-04T20:40:13;6.90;99.30
43647;DHT22;56152;49.996;18.980;2024-02-04T20:45:19;6.90;99.30
43647;DHT22;56152;49.996;18.980;2024-02-04T20:50:21;6.90;98.90
43647;DHT22;56152;49.996;18.980;2024-02-04T20:55:31;6.70;98.90
43647;DHT22;56152;49.996;18.980;2024-02-04T21:00:36;6.50;98.80
43647;DHT22;56152;49.996;18.980;2024-02-04T21:06:06;6.30;99.00
43647;DHT22;56152;49.996;18.980;2024-02-04T21:11:18;6.20;99.20
43647;DHT22;56152;49.996;18.980;2024-02-04T21:16:20;6.10;99.20
43647;DHT22;56152;49.996;18.980;2024-02-04T21:21:31;5.90;99.10
43647;DHT22;56152;49.996;18.980;2024-02-04T21:26:35;5.80;99.10
43647;DHT22;56152;49.996;18.980;2024-02-04T21:31:46;5.70;99.30
43647;DHT22;56152;49.996;18.980;2024-02-04T21:36:55;5.70;99.10
43647;DHT22;56152;49.996;18.980;2024-02-04T21:42:01;5.60;99.10
43647;DHT22;56152;49.996;18.980;2024-02-04T21:47:05;5.50;99.10
43647;DHT22;56152;49.996;18.980;2024-02-04T21:52:15;5.50;99.20
43647;DHT22;56152;49.996;18.980;2024-02-04T21:57:19;5.40;99.10
43647;DHT22;56152;49.996;18.980;2024-02-04T22:02:22;5.30;99.10
43647;DHT22;56152;49.996;18.980;2024-02-04T22:07:26;5.20;99.10
43647;DHT22;56152;49.996;18.980;2024-02-04T22:12:30;5.20;99.20
43647;DHT22;56152;49.996;18.980;2024-02-04T22:17:40;5.20;99.30
43647;DHT22;56152;49.996;18.980;2024-02-04T22:22:44;5.10;99.30
43647;DHT22;56152;49.996;18.980;2024-02-04T22:27:49;5.10;99.30
43647;DHT22;56152;49.996;18.980;2024-02-04T22:32:51;5.10;99.40
43647;DHT22;56152;49.996;18.980;2024-02-04T22:37:54;5.10;99.40
43647;DHT22;56152;49.996;18.980;2024-02-04T22:42:58;5.00;99.50
43647;DHT22;56152;49.996;18.980;2024-02-04T22:48:00;5.00;99.50
43647;DHT22;56152;49.996;18.980;2024-02-04T22:53:03;5.00;99.60
43647;DHT22;56152;49.996;18.980;2024-02-04T22:58:07;5.10;99.60
43647;DHT22;56152;49.996;18.980;2024-02-04T23:03:09;5.10;99.60
43647;DHT22;56152;49.996;18.980;2024-02-04T23:08:19;5.20;99.70
43647;DHT22;56152;49.996;18.980;2024-02-04T23:13:23;5.20;99.70
43647;DHT22;56152;49.996;18.980;2024-02-04T23:18:25;5.20;99.80
43647;DHT22;56152;49.996;18.980;2024-02-04T23:23:27;5.20;99.80
43647;DHT22;56152;49.996;18.980;2024-02-04T23:28:32;5.20;99.80
43647;DHT22;56152;49.996;18.980;2024-02-04T23:33:36;5.30;99.90
43647;DHT22;56152;49.996;18.980;2024-02-04T23:38:39;5.30;99.90
43647;DHT22;56152;49.996;18.980;2024-02-04T23:43:44;5.20;99.80
43647;DHT22;56152;49.996;18.980;2024-02-04T23:48:46;5.20;99.80
43647;DHT22;56152;49.996;18.980;2024-02-04T23:53:53;5.20;99.90
43647;DHT22;56152;49.996;18.980;2024-02-04T23:58:57;5.10;99.90
